»·PEaware :: N2T KVNY-KSFO

N2T :: KVNY-KSFO

FLIGHT INFORMATION

Flight Status: Arrived
Operator: Privately registered:
United States
More flights under this callsign
Pilot: Arturas K. (29722)
Aircraft: DASSAULT AVIATION FALCON 50
(FA50)
More flights by this aircraft type
Origin: KVNY Van Nuys
United States
Destination: KSFO San Francisco Intl
United States
More flights between these airports :: More routes between these airports
Route: WLKKR4 COREZ MAKRS SERFR SERFR4
File this flight plan on PilotEdge
Remarks:
Altitude:
(Current/Filed)
28,000ft
Speed:
(Current/Filed)
300kts
Departed: 23-May-20 06:25 AM
Arrived: 23-May-20 07:32 AM
Distance/Time
Traveled:
279nm/1:07
Distance/Time
To Go:
Arrived

Flight Plot

Page will automatically refresh every two minutes.


Map Options




Map Legend


Flown Route
Filed Route
Departure Airport
Arrival Airport
Navaid (VOR, NDB)
Fix

Horizontal Profiles

Position Reports

Time Latitude Longitude Heading Altitude Ground
Speed
23-May-20 06:12 34.203508 -118.491371 37 809ft 0kts
23-May-20 06:13 34.203508 -118.491371 37 809ft 0kts
23-May-20 06:14 34.203508 -118.491371 37 809ft 0kts
23-May-20 06:15 34.203508 -118.491371 37 809ft 0kts
23-May-20 06:16 34.203508 -118.491371 37 809ft 0kts
23-May-20 06:17 34.203508 -118.491371 37 809ft 0kts
23-May-20 06:18 34.203508 -118.491371 37 809ft 0kts
23-May-20 06:19 34.203508 -118.491371 37 809ft 0kts
23-May-20 06:20 34.203508 -118.491371 37 809ft 0kts
23-May-20 06:21 34.203046 -118.490869 171 809ft 11kts
23-May-20 06:22 34.198988 -118.490165 174 809ft 12kts
23-May-20 06:23 34.197531 -118.489218 357 809ft 18kts
23-May-20 06:24 34.235487 -118.479330 62 2472ft 234kts
23-May-20 06:25 34.196729 -118.433620 208 7512ft 270kts
23-May-20 06:26 34.186038 -118.496170 297 12026ft 279kts
23-May-20 06:27 34.203499 -118.491379 37 809ft 0kts
23-May-20 06:36 34.219282 -118.493267 168 809ft 8kts
23-May-20 06:37 34.217184 -118.491081 176 809ft 59kts
23-May-20 06:38 34.173528 -118.488853 196 2869ft 228kts
23-May-20 06:39 34.175952 -118.556177 339 7545ft 269kts
23-May-20 06:40 34.247207 -118.596163 335 12349ft 313kts
23-May-20 06:41 34.333988 -118.632899 341 16382ft 348kts
23-May-20 06:42 34.426503 -118.675083 331 19997ft 362kts
23-May-20 06:43 34.514093 -118.735853 327 23279ft 368kts
23-May-20 06:44 34.602962 -118.798730 326 26035ft 375kts
23-May-20 06:45 34.693819 -118.863148 325 28059ft 390kts
23-May-20 06:46 34.794053 -118.934414 326 28022ft 440kts
23-May-20 06:47 34.903541 -119.012610 326 27994ft 466kts
23-May-20 06:48 34.990092 -119.074598 326 27980ft 474kts
23-May-20 06:49 35.103693 -119.156123 326 27978ft 472kts
23-May-20 06:50 35.216529 -119.237365 326 27981ft 472kts
23-May-20 06:51 35.329484 -119.318961 326 27979ft 472kts
23-May-20 06:52 35.442443 -119.400826 326 27978ft 472kts
23-May-20 06:53 35.547169 -119.493916 308 27984ft 464kts
23-May-20 06:54 35.580882 -119.645646 281 27975ft 463kts
23-May-20 06:55 35.603985 -119.801530 281 27986ft 463kts
23-May-20 06:56 35.626958 -119.957946 281 28008ft 463kts
23-May-20 06:57 35.649644 -120.113853 281 28016ft 463kts
23-May-20 06:58 35.672140 -120.269936 281 28015ft 463kts
23-May-20 06:59 35.711667 -120.419564 295 28014ft 462kts
23-May-20 07:00 35.766284 -120.562476 295 28012ft 462kts
23-May-20 07:01 35.820904 -120.706055 294 28022ft 459kts
23-May-20 07:02 35.874552 -120.847718 294 27177ft 450kts
23-May-20 07:03 35.927099 -120.987096 295 26164ft 446kts
23-May-20 07:04 35.978925 -121.125170 296 25181ft 435kts
23-May-20 07:05 36.028930 -121.258932 296 24243ft 426kts
23-May-20 07:06 36.090745 -121.380921 323 23282ft 419kts
23-May-20 07:07 36.184148 -121.454975 327 22477ft 367kts
23-May-20 07:08 36.266721 -121.519553 327 21795ft 350kts
23-May-20 07:09 36.348806 -121.583908 327 21090ft 349kts
23-May-20 07:10 36.430335 -121.647988 327 20083ft 344kts
23-May-20 07:11 36.509231 -121.710163 327 19143ft 335kts
23-May-20 07:12 36.588932 -121.773166 327 17645ft 341kts
23-May-20 07:13 36.668932 -121.836563 327 16150ft 339kts
23-May-20 07:14 36.747517 -121.893360 341 14658ft 320kts
23-May-20 07:15 36.832916 -121.919693 346 13523ft 312kts
23-May-20 07:16 36.917506 -121.943349 346 12413ft 311kts
23-May-20 07:17 37.001081 -121.972272 342 11299ft 311kts
23-May-20 07:18 37.084085 -122.004627 343 10184ft 312kts
23-May-20 07:19 37.163857 -122.034410 352 9058ft 273kts
23-May-20 07:20 37.235069 -122.044992 354 7867ft 249kts
23-May-20 07:21 37.302414 -122.045455 9 6764ft 239kts
23-May-20 07:22 37.367416 -122.033675 9 5744ft 231kts
23-May-20 07:23 37.427839 -122.051079 339 4762ft 219kts
23-May-20 07:24 37.480958 -122.078260 339 4019ft 202kts
23-May-20 07:26 37.517485 -122.129164 299 3887ft 204kts
23-May-20 07:27 37.541745 -122.186738 299 3081ft 145kts
23-May-20 07:28 37.559113 -122.227809 299 2318ft 123kts
23-May-20 07:29 37.575230 -122.266105 298 1661ft 123kts
23-May-20 07:30 37.591263 -122.304131 298 992ft 122kts
23-May-20 07:31 37.607283 -122.342253 298 329ft 122kts
23-May-20 07:32 37.620651 -122.374109 299 17ft 36kts
23-May-20 07:33 37.623274 -122.376563 300 20ft 6kts
23-May-20 07:34 37.625390 -122.376221 206 16ft 0kts

Navigation Log

Ident Type
Flight plan parsing failed, navigation log unavailable